WZZ2KE LHBP-LPMA
Flight info
| Callsign | WZZ2KE |
|---|---|
| Flight time | N/A |
| Altitude | 32000 |
| Route | GILEP DCT ZOLKU DCT SUNIS DCT RADLY DCT LAGEN DCT GEKBA DCT VAMTU DCT KOLON DCT GANGU DCT PADKO DCT DIVKO DCT NILDU DCT NENDA DCT BCN DCT ANTON DCT XIKEN DCT OSLAP DCT SALAS DCT RAMON DCT NEXAS DCT DISVU DCT ADUXO DCT CJN DCT PALIO DCT AKOKI DCT GOTOR DCT TLD DCT NATPA DCT MELON DCT CCS DCT EXONA DCT NAKOS DCT GALPA DCT RAKUN RAKUN1P/23 |
| Aircraft | A21N/M-SDE1E2E3FGIJ1J4RWXY/LB1 |
Departure
| Time | N/A |
|---|---|
| Airport | Budapest Liszt Ferenc International Airport (LHBP) |
Arrival
| Time | 2026-05-03 21:59 |
|---|---|
| Airport | Cristiano Ronaldo International Airport (LPMA) |
| Time | Latitude | Longitude | Altitude | Speed | Heading |
|---|---|---|---|---|---|
| 2026-05-03 20:15 | 38.33282 | -8.85561 | 37053 ft | 383 kts | 232° |
| 2026-05-03 20:15 | 38.29794 | -8.90597 | 37042 ft | 379 kts | 232° |
| 2026-05-03 20:16 | 38.26305 | -8.95639 | 37056 ft | 379 kts | 232° |
| 2026-05-03 20:16 | 38.22812 | -9.00672 | 37059 ft | 380 kts | 232° |
| 2026-05-03 20:17 | 38.19319 | -9.05701 | 37060 ft | 380 kts | 232° |
| 2026-05-03 20:17 | 38.15823 | -9.10736 | 37072 ft | 381 kts | 232° |
| 2026-05-03 20:18 | 38.12340 | -9.15748 | 37068 ft | 381 kts | 232° |
| 2026-05-03 20:18 | 38.08830 | -9.20784 | 37067 ft | 381 kts | 232° |
| 2026-05-03 20:19 | 38.05316 | -9.25821 | 37066 ft | 381 kts | 232° |
| 2026-05-03 20:19 | 38.01802 | -9.30850 | 37068 ft | 381 kts | 232° |
| 2026-05-03 20:20 | 37.98407 | -9.35985 | 37072 ft | 379 kts | 235° |
| 2026-05-03 20:20 | 37.95180 | -9.41226 | 37071 ft | 379 kts | 235° |
| 2026-05-03 20:21 | 37.91932 | -9.46488 | 37084 ft | 379 kts | 235° |
| 2026-05-03 20:21 | 37.88674 | -9.51759 | 37081 ft | 380 kts | 235° |
| 2026-05-03 20:22 | 37.85408 | -9.57029 | 37084 ft | 380 kts | 235° |
| 2026-05-03 20:22 | 37.82143 | -9.62291 | 37078 ft | 380 kts | 235° |
| 2026-05-03 20:23 | 37.78878 | -9.67549 | 37050 ft | 380 kts | 235° |
| 2026-05-03 20:23 | 37.75640 | -9.72760 | 37078 ft | 378 kts | 235° |
| 2026-05-03 20:24 | 37.72385 | -9.77986 | 37085 ft | 378 kts | 235° |
| 2026-05-03 20:24 | 37.69130 | -9.83202 | 37088 ft | 378 kts | 235° |
| 2026-05-03 20:25 | 37.65865 | -9.88432 | 37092 ft | 380 kts | 235° |
| 2026-05-03 20:25 | 37.62616 | -9.93628 | 37091 ft | 380 kts | 235° |
| 2026-05-03 20:26 | 37.59341 | -9.98850 | 37094 ft | 380 kts | 235° |
| 2026-05-03 20:26 | 37.56062 | -10.04076 | 37094 ft | 379 kts | 235° |
| 2026-05-03 20:27 | 37.52782 | -10.09288 | 37093 ft | 380 kts | 235° |
| 2026-05-03 20:27 | 37.49495 | -10.14501 | 37085 ft | 379 kts | 235° |
| 2026-05-03 20:28 | 37.46249 | -10.19650 | 37093 ft | 378 kts | 235° |
| 2026-05-03 20:28 | 37.42980 | -10.24839 | 37097 ft | 379 kts | 235° |
| 2026-05-03 20:29 | 37.39695 | -10.30033 | 37105 ft | 379 kts | 235° |
| 2026-05-03 20:29 | 37.36414 | -10.35218 | 37107 ft | 379 kts | 235° |
| 2026-05-03 20:30 | 37.33142 | -10.40362 | 37109 ft | 379 kts | 235° |
| 2026-05-03 20:30 | 37.29852 | -10.45535 | 37109 ft | 379 kts | 235° |
| 2026-05-03 20:31 | 37.26561 | -10.50708 | 37113 ft | 379 kts | 235° |
| 2026-05-03 20:31 | 37.23265 | -10.55874 | 37091 ft | 380 kts | 234° |
| 2026-05-03 20:32 | 37.19974 | -10.61020 | 37106 ft | 379 kts | 235° |
| 2026-05-03 20:32 | 37.16702 | -10.66132 | 37110 ft | 378 kts | 235° |
| 2026-05-03 20:33 | 37.13401 | -10.71259 | 37111 ft | 378 kts | 235° |
| 2026-05-03 20:33 | 37.10099 | -10.76391 | 37111 ft | 378 kts | 235° |
| 2026-05-03 20:34 | 37.06799 | -10.81526 | 37115 ft | 378 kts | 235° |
| 2026-05-03 20:34 | 37.03521 | -10.86620 | 37116 ft | 378 kts | 235° |
| 2026-05-03 20:35 | 37.00220 | -10.91741 | 37121 ft | 378 kts | 235° |
| 2026-05-03 20:35 | 36.96917 | -10.96860 | 37121 ft | 379 kts | 235° |
| 2026-05-03 20:36 | 36.93606 | -11.01973 | 37117 ft | 376 kts | 235° |
| 2026-05-03 20:36 | 36.90309 | -11.07059 | 37122 ft | 377 kts | 235° |
| 2026-05-03 20:37 | 36.87030 | -11.12109 | 37125 ft | 377 kts | 235° |
| 2026-05-03 20:37 | 36.83726 | -11.17193 | 37125 ft | 377 kts | 235° |
| 2026-05-03 20:38 | 36.80424 | -11.22266 | 37123 ft | 377 kts | 235° |
| 2026-05-03 20:38 | 36.77113 | -11.27342 | 37125 ft | 377 kts | 235° |
| 2026-05-03 20:39 | 36.73827 | -11.32375 | 37126 ft | 377 kts | 235° |
| 2026-05-03 20:39 | 36.70514 | -11.37446 | 37133 ft | 377 kts | 235° |
| 2026-05-03 20:40 | 36.67189 | -11.42515 | 37104 ft | 378 kts | 235° |
| 2026-05-03 20:40 | 36.63878 | -11.47574 | 37125 ft | 376 kts | 235° |
| 2026-05-03 20:41 | 36.60569 | -11.52622 | 37128 ft | 376 kts | 235° |
| 2026-05-03 20:41 | 36.57262 | -11.57659 | 37130 ft | 376 kts | 235° |
| 2026-05-03 20:42 | 36.53979 | -11.62664 | 37132 ft | 376 kts | 235° |
| 2026-05-03 20:42 | 36.50670 | -11.67685 | 37133 ft | 376 kts | 235° |
| 2026-05-03 20:43 | 36.47357 | -11.72705 | 37133 ft | 375 kts | 235° |
| 2026-05-03 20:43 | 36.44040 | -11.77718 | 37137 ft | 375 kts | 234° |
| 2026-05-03 20:44 | 36.40743 | -11.82690 | 37137 ft | 375 kts | 234° |
| 2026-05-03 20:44 | 36.37414 | -11.87706 | 37118 ft | 377 kts | 234° |
| 2026-05-03 20:45 | 36.34083 | -11.92695 | 37147 ft | 375 kts | 234° |
| 2026-05-03 20:45 | 36.30764 | -11.97667 | 37145 ft | 375 kts | 234° |
| 2026-05-03 20:46 | 36.27462 | -12.02613 | 37143 ft | 375 kts | 234° |
| 2026-05-03 20:46 | 36.24136 | -12.07596 | 37144 ft | 376 kts | 234° |
| 2026-05-03 20:47 | 36.20798 | -12.12585 | 37147 ft | 376 kts | 234° |
| 2026-05-03 20:47 | 36.17462 | -12.17570 | 37148 ft | 376 kts | 234° |
| 2026-05-03 20:48 | 36.14156 | -12.22520 | 37142 ft | 376 kts | 234° |
| 2026-05-03 20:48 | 36.10819 | -12.27506 | 37122 ft | 377 kts | 234° |
| 2026-05-03 20:49 | 36.07464 | -12.32485 | 37144 ft | 377 kts | 234° |
| 2026-05-03 20:49 | 36.04107 | -12.37459 | 37149 ft | 377 kts | 234° |
| 2026-05-03 20:50 | 36.00746 | -12.42435 | 37147 ft | 378 kts | 234° |
| 2026-05-03 20:50 | 35.97400 | -12.47389 | 37147 ft | 378 kts | 234° |
| 2026-05-03 20:51 | 35.94029 | -12.52370 | 37153 ft | 378 kts | 234° |
| 2026-05-03 20:51 | 35.90658 | -12.57346 | 37153 ft | 378 kts | 234° |
| 2026-05-03 20:52 | 35.87297 | -12.62324 | 37149 ft | 378 kts | 234° |
| 2026-05-03 20:52 | 35.83951 | -12.67268 | 37150 ft | 378 kts | 234° |
| 2026-05-03 20:53 | 35.80566 | -12.72242 | 37139 ft | 379 kts | 234° |
| 2026-05-03 20:53 | 35.77182 | -12.77206 | 37146 ft | 378 kts | 234° |
| 2026-05-03 20:54 | 35.73788 | -12.82186 | 37150 ft | 380 kts | 234° |
| 2026-05-03 20:54 | 35.68718 | -12.89608 | 37153 ft | 379 kts | 234° |
| 2026-05-03 20:55 | 35.65322 | -12.94568 | 37159 ft | 379 kts | 234° |
| 2026-05-03 20:55 | 35.61920 | -12.99523 | 37159 ft | 379 kts | 234° |
| 2026-05-03 20:56 | 35.58542 | -13.04440 | 37157 ft | 379 kts | 234° |
| 2026-05-03 20:56 | 35.55137 | -13.09392 | 37159 ft | 379 kts | 234° |
| 2026-05-03 20:57 | 35.51733 | -13.14339 | 37136 ft | 381 kts | 233° |
| 2026-05-03 20:57 | 35.48299 | -13.19313 | 37157 ft | 381 kts | 233° |
| 2026-05-03 20:58 | 35.44893 | -13.24246 | 37160 ft | 381 kts | 233° |
| 2026-05-03 20:58 | 35.41463 | -13.29206 | 37161 ft | 381 kts | 233° |
| 2026-05-03 20:59 | 35.38027 | -13.34162 | 37160 ft | 381 kts | 233° |
| 2026-05-03 20:59 | 35.34581 | -13.39097 | 37161 ft | 381 kts | 233° |
| 2026-05-03 21:00 | 35.32299 | -13.42376 | 37162 ft | 382 kts | 233° |
| 2026-05-03 21:00 | 35.27718 | -13.48958 | 37162 ft | 381 kts | 233° |
| 2026-05-03 21:01 | 35.24267 | -13.53914 | 37167 ft | 383 kts | 233° |
| 2026-05-03 21:01 | 35.20808 | -13.58869 | 37161 ft | 383 kts | 233° |
| 2026-05-03 21:02 | 35.17347 | -13.63827 | 37156 ft | 383 kts | 233° |
| 2026-05-03 21:02 | 35.13905 | -13.68743 | 37162 ft | 383 kts | 233° |
| 2026-05-03 21:03 | 35.10440 | -13.73694 | 37162 ft | 383 kts | 233° |
| 2026-05-03 21:03 | 35.06985 | -13.78646 | 37159 ft | 383 kts | 233° |
| 2026-05-03 21:04 | 35.03514 | -13.83592 | 37157 ft | 383 kts | 233° |
| 2026-05-03 21:04 | 35.00031 | -13.88533 | 37162 ft | 385 kts | 233° |
| 2026-05-03 21:05 | 34.96566 | -13.93458 | 37160 ft | 385 kts | 233° |
| 2026-05-03 21:05 | 34.93065 | -13.98415 | 37130 ft | 386 kts | 233° |
| 2026-05-03 21:06 | 34.89584 | -14.03347 | 37154 ft | 384 kts | 233° |
| 2026-05-03 21:06 | 34.86100 | -14.08266 | 37161 ft | 383 kts | 233° |
| 2026-05-03 21:07 | 34.82639 | -14.13152 | 37160 ft | 384 kts | 233° |
| 2026-05-03 21:07 | 34.79147 | -14.18064 | 37157 ft | 384 kts | 233° |
| 2026-05-03 21:08 | 34.75656 | -14.22981 | 37161 ft | 385 kts | 233° |
| 2026-05-03 21:08 | 34.72145 | -14.27917 | 37163 ft | 386 kts | 233° |
| 2026-05-03 21:09 | 34.68628 | -14.32857 | 37158 ft | 386 kts | 233° |
| 2026-05-03 21:09 | 34.65128 | -14.37746 | 37158 ft | 386 kts | 232° |
| 2026-05-03 21:10 | 34.61599 | -14.42654 | 37145 ft | 385 kts | 232° |
| 2026-05-03 21:10 | 34.58084 | -14.47551 | 37154 ft | 385 kts | 232° |
| 2026-05-03 21:11 | 34.54587 | -14.52463 | 37165 ft | 385 kts | 233° |
| 2026-05-03 21:11 | 34.51102 | -14.57330 | 37159 ft | 385 kts | 232° |
| 2026-05-03 21:12 | 34.47576 | -14.62240 | 37161 ft | 387 kts | 232° |
| 2026-05-03 21:12 | 34.44038 | -14.67154 | 37154 ft | 387 kts | 232° |
| 2026-05-03 21:13 | 34.40496 | -14.72057 | 37155 ft | 387 kts | 232° |
| 2026-05-03 21:13 | 34.36813 | -14.76826 | 37153 ft | 388 kts | 230° |
| 2026-05-03 21:14 | 34.33108 | -14.81518 | 37132 ft | 388 kts | 230° |
| 2026-05-03 21:14 | 34.29376 | -14.86213 | 37147 ft | 387 kts | 230° |
| 2026-05-03 21:15 | 34.25651 | -14.90917 | 37153 ft | 387 kts | 230° |
| 2026-05-03 21:15 | 34.21922 | -14.95626 | 37143 ft | 389 kts | 230° |
| 2026-05-03 21:16 | 34.18207 | -15.00310 | 37148 ft | 384 kts | 230° |
| 2026-05-03 21:16 | 34.14579 | -15.04861 | 36771 ft | 370 kts | 230° |
| 2026-05-03 21:17 | 34.12805 | -15.07095 | 36097 ft | 368 kts | 230° |
| 2026-05-03 21:17 | 34.11633 | -15.08574 | 35640 ft | 368 kts | 230° |
| 2026-05-03 21:17 | 34.09276 | -15.11537 | 34853 ft | 364 kts | 230° |
| 2026-05-03 21:17 | 34.07534 | -15.13722 | 34345 ft | 359 kts | 230° |
| 2026-05-03 21:18 | 34.05813 | -15.15880 | 33791 ft | 355 kts | 230° |
| 2026-05-03 21:18 | 34.04113 | -15.18009 | 33167 ft | 351 kts | 231° |
| 2026-05-03 21:18 | 34.02451 | -15.20094 | 32595 ft | 348 kts | 231° |
| 2026-05-03 21:18 | 34.00782 | -15.22184 | 32013 ft | 345 kts | 231° |
| 2026-05-03 21:19 | 33.99125 | -15.24257 | 31432 ft | 342 kts | 231° |
| 2026-05-03 21:19 | 33.97474 | -15.26322 | 30875 ft | 343 kts | 231° |
| 2026-05-03 21:19 | 33.95818 | -15.28394 | 30412 ft | 343 kts | 231° |
| 2026-05-03 21:19 | 33.94162 | -15.30459 | 29935 ft | 342 kts | 231° |
| 2026-05-03 21:20 | 33.92510 | -15.32519 | 29430 ft | 341 kts | 231° |
| 2026-05-03 21:20 | 33.90871 | -15.34566 | 28942 ft | 339 kts | 231° |
| 2026-05-03 21:20 | 33.89237 | -15.36603 | 28465 ft | 337 kts | 231° |
| 2026-05-03 21:20 | 33.87630 | -15.38599 | 27994 ft | 336 kts | 230° |
| 2026-05-03 21:21 | 33.86009 | -15.40611 | 27517 ft | 334 kts | 230° |
| 2026-05-03 21:21 | 33.84399 | -15.42616 | 27071 ft | 333 kts | 231° |
| 2026-05-03 21:21 | 33.82796 | -15.44612 | 26622 ft | 331 kts | 231° |
| 2026-05-03 21:21 | 33.81195 | -15.46603 | 26177 ft | 330 kts | 230° |
| 2026-05-03 21:22 | 33.79602 | -15.48579 | 25739 ft | 329 kts | 230° |
| 2026-05-03 21:22 | 33.78014 | -15.50548 | 25313 ft | 327 kts | 230° |
| 2026-05-03 21:22 | 33.76430 | -15.52507 | 24885 ft | 326 kts | 230° |
| 2026-05-03 21:22 | 33.74857 | -15.54457 | 24457 ft | 325 kts | 230° |
| 2026-05-03 21:23 | 33.73285 | -15.56407 | 24034 ft | 324 kts | 230° |
| 2026-05-03 21:23 | 33.71742 | -15.58321 | 23619 ft | 322 kts | 230° |
| 2026-05-03 21:23 | 33.70186 | -15.60250 | 23135 ft | 321 kts | 230° |
| 2026-05-03 21:23 | 33.68633 | -15.62170 | 22660 ft | 319 kts | 230° |
| 2026-05-03 21:24 | 33.67090 | -15.64078 | 22187 ft | 318 kts | 230° |
| 2026-05-03 21:24 | 33.65551 | -15.65979 | 21722 ft | 317 kts | 230° |
| 2026-05-03 21:24 | 33.64012 | -15.67874 | 21267 ft | 316 kts | 230° |
| 2026-05-03 21:24 | 33.62485 | -15.69763 | 20819 ft | 315 kts | 230° |
| 2026-05-03 21:25 | 33.60965 | -15.71640 | 20379 ft | 313 kts | 230° |
| 2026-05-03 21:25 | 33.59449 | -15.73512 | 19940 ft | 312 kts | 230° |
| 2026-05-03 21:25 | 33.57956 | -15.75348 | 19522 ft | 311 kts | 229° |
| 2026-05-03 21:25 | 33.56450 | -15.77202 | 19099 ft | 310 kts | 229° |
| 2026-05-03 21:26 | 33.54941 | -15.79048 | 18681 ft | 309 kts | 228° |
| 2026-05-03 21:26 | 33.53408 | -15.80848 | 18239 ft | 309 kts | 228° |
| 2026-05-03 21:26 | 33.51871 | -15.82643 | 17768 ft | 307 kts | 228° |
| 2026-05-03 21:26 | 33.50348 | -15.84424 | 17299 ft | 305 kts | 228° |
| 2026-05-03 21:27 | 33.48837 | -15.86193 | 16833 ft | 303 kts | 228° |
| 2026-05-03 21:27 | 33.47353 | -15.87931 | 16399 ft | 302 kts | 227° |
| 2026-05-03 21:27 | 33.45856 | -15.89682 | 16011 ft | 300 kts | 227° |
| 2026-05-03 21:27 | 33.44365 | -15.91422 | 15629 ft | 299 kts | 227° |
| 2026-05-03 21:28 | 33.42882 | -15.93158 | 15249 ft | 297 kts | 227° |
| 2026-05-03 21:28 | 33.41405 | -15.94887 | 14886 ft | 296 kts | 227° |
| 2026-05-03 21:28 | 33.39935 | -15.96608 | 14531 ft | 295 kts | 227° |
| 2026-05-03 21:28 | 33.38463 | -15.98322 | 14177 ft | 295 kts | 227° |
| 2026-05-03 21:29 | 33.36999 | -16.00033 | 13816 ft | 294 kts | 227° |
| 2026-05-03 21:29 | 33.35542 | -16.01732 | 13413 ft | 292 kts | 227° |
| 2026-05-03 21:29 | 33.34108 | -16.03403 | 13038 ft | 291 kts | 227° |
| 2026-05-03 21:29 | 33.32658 | -16.05083 | 12654 ft | 289 kts | 226° |
| 2026-05-03 21:30 | 33.31216 | -16.06754 | 12270 ft | 288 kts | 226° |
| 2026-05-03 21:30 | 33.29784 | -16.08420 | 11893 ft | 287 kts | 226° |
| 2026-05-03 21:30 | 33.28358 | -16.10079 | 11521 ft | 285 kts | 226° |
| 2026-05-03 21:30 | 33.26940 | -16.11729 | 11156 ft | 284 kts | 226° |
| 2026-05-03 21:31 | 33.25529 | -16.13371 | 10788 ft | 283 kts | 226° |
| 2026-05-03 21:31 | 33.24127 | -16.15008 | 10429 ft | 281 kts | 226° |
| 2026-05-03 21:31 | 33.22750 | -16.16617 | 10082 ft | 280 kts | 226° |
| 2026-05-03 21:31 | 33.21360 | -16.18235 | 9693 ft | 279 kts | 226° |
| 2026-05-03 21:32 | 33.19972 | -16.19843 | 9302 ft | 277 kts | 226° |
| 2026-05-03 21:32 | 33.18589 | -16.21438 | 8918 ft | 276 kts | 226° |
| 2026-05-03 21:32 | 33.17217 | -16.23027 | 8532 ft | 275 kts | 226° |
| 2026-05-03 21:32 | 33.15848 | -16.24614 | 8150 ft | 274 kts | 226° |
| 2026-05-03 21:33 | 33.14487 | -16.26195 | 7866 ft | 273 kts | 226° |
| 2026-05-03 21:33 | 33.13131 | -16.27774 | 7596 ft | 272 kts | 226° |
| 2026-05-03 21:33 | 33.11793 | -16.29327 | 7359 ft | 271 kts | 226° |
| 2026-05-03 21:33 | 33.10439 | -16.30896 | 7120 ft | 271 kts | 226° |
| 2026-05-03 21:34 | 33.09092 | -16.32455 | 6882 ft | 270 kts | 226° |
| 2026-05-03 21:34 | 33.07744 | -16.34015 | 6654 ft | 270 kts | 226° |
| 2026-05-03 21:34 | 33.06399 | -16.35570 | 6402 ft | 269 kts | 226° |
| 2026-05-03 21:34 | 33.05059 | -16.37118 | 6142 ft | 268 kts | 226° |
| 2026-05-03 21:35 | 33.03723 | -16.38661 | 5914 ft | 266 kts | 226° |
| 2026-05-03 21:35 | 33.02412 | -16.40174 | 5660 ft | 259 kts | 226° |
| 2026-05-03 21:35 | 33.01152 | -16.41627 | 5404 ft | 252 kts | 225° |
| 2026-05-03 21:35 | 32.99909 | -16.43057 | 5152 ft | 245 kts | 225° |
| 2026-05-03 21:36 | 32.98700 | -16.44447 | 4924 ft | 238 kts | 225° |
| 2026-05-03 21:36 | 32.97530 | -16.45792 | 4736 ft | 231 kts | 225° |
| 2026-05-03 21:36 | 32.96379 | -16.47118 | 4505 ft | 230 kts | 225° |
| 2026-05-03 21:36 | 32.95229 | -16.48443 | 4259 ft | 230 kts | 225° |
| 2026-05-03 21:37 | 32.94084 | -16.49764 | 3997 ft | 230 kts | 225° |
| 2026-05-03 21:37 | 32.92934 | -16.51086 | 3760 ft | 229 kts | 225° |
| 2026-05-03 21:37 | 32.91785 | -16.52367 | 3515 ft | 229 kts | 222° |
| 2026-05-03 21:37 | 32.90594 | -16.53627 | 3265 ft | 229 kts | 222° |
| 2026-05-03 21:38 | 32.89405 | -16.54885 | 3037 ft | 229 kts | 222° |
| 2026-05-03 21:38 | 32.88215 | -16.56148 | 2989 ft | 229 kts | 222° |
| 2026-05-03 21:38 | 32.87029 | -16.57412 | 2996 ft | 229 kts | 222° |
| 2026-05-03 21:38 | 32.85845 | -16.58676 | 3010 ft | 229 kts | 222° |
| 2026-05-03 21:39 | 32.84688 | -16.59975 | 3006 ft | 229 kts | 231° |
| 2026-05-03 21:39 | 32.83620 | -16.61375 | 3008 ft | 229 kts | 221° |
| 2026-05-03 21:39 | 32.82408 | -16.62553 | 3011 ft | 225 kts | 220° |
| 2026-05-03 21:39 | 32.81185 | -16.63698 | 3006 ft | 223 kts | 221° |
| 2026-05-03 21:40 | 32.80011 | -16.64890 | 2825 ft | 221 kts | 224° |
| 2026-05-03 21:40 | 32.78847 | -16.66185 | 2149 ft | 235 kts | 225° |
| 2026-05-03 21:40 | 32.77653 | -16.67516 | 2104 ft | 252 kts | 223° |
| 2026-05-03 21:40 | 32.76296 | -16.68937 | 1829 ft | 258 kts | 223° |
| 2026-05-03 21:41 | 32.74985 | -16.70306 | 1721 ft | 241 kts | 222° |
| 2026-05-03 21:41 | 32.73813 | -16.71577 | 1929 ft | 219 kts | 225° |
| 2026-05-03 21:41 | 32.72717 | -16.72956 | 2286 ft | 241 kts | 227° |
| 2026-05-03 21:41 | 32.71549 | -16.74259 | 3089 ft | 208 kts | 223° |
| 2026-05-03 21:42 | 32.70501 | -16.75346 | 3603 ft | 209 kts | 223° |
| 2026-05-03 21:42 | 32.69375 | -16.76493 | 3863 ft | 215 kts | 223° |
| 2026-05-03 21:42 | 32.68137 | -16.77446 | 3948 ft | 219 kts | 200° |
| 2026-05-03 21:42 | 32.66612 | -16.77563 | 3991 ft | 226 kts | 170° |
| 2026-05-03 21:43 | 32.65204 | -16.76723 | 4000 ft | 232 kts | 139° |
| 2026-05-03 21:43 | 32.64267 | -16.75112 | 4012 ft | 245 kts | 115° |
| 2026-05-03 21:43 | 32.63630 | -16.73234 | 4010 ft | 245 kts | 111° |
| 2026-05-03 21:43 | 32.63086 | -16.71315 | 3992 ft | 246 kts | 99° |
| 2026-05-03 21:44 | 32.63265 | -16.69331 | 3983 ft | 244 kts | 63° |
| 2026-05-03 21:44 | 32.64352 | -16.67858 | 3989 ft | 239 kts | 27° |
| 2026-05-03 21:44 | 32.65848 | -16.67080 | 4003 ft | 239 kts | 22° |
| 2026-05-03 21:44 | 32.67392 | -16.66379 | 4003 ft | 237 kts | 16° |
| 2026-05-03 21:45 | 32.68961 | -16.65769 | 3999 ft | 237 kts | 15° |
| 2026-05-03 21:45 | 32.70535 | -16.65157 | 3997 ft | 238 kts | 16° |
| 2026-05-03 21:45 | 32.72102 | -16.64538 | 4000 ft | 237 kts | 16° |
| 2026-05-03 21:45 | 32.73667 | -16.63914 | 3999 ft | 237 kts | 16° |
| 2026-05-03 21:46 | 32.75231 | -16.63288 | 4000 ft | 237 kts | 16° |
| 2026-05-03 21:46 | 32.76795 | -16.62655 | 4006 ft | 238 kts | 16° |
| 2026-05-03 21:46 | 32.78384 | -16.62009 | 4027 ft | 246 kts | 16° |
| 2026-05-03 21:46 | 32.80010 | -16.61348 | 4028 ft | 248 kts | 16° |
| 2026-05-03 21:47 | 32.81618 | -16.60696 | 4012 ft | 248 kts | 17° |
| 2026-05-03 21:47 | 32.83249 | -16.60033 | 4009 ft | 248 kts | 17° |
| 2026-05-03 21:47 | 32.84879 | -16.59368 | 4016 ft | 247 kts | 18° |
| 2026-05-03 21:47 | 32.86503 | -16.58706 | 4018 ft | 247 kts | 18° |
| 2026-05-03 21:48 | 32.88100 | -16.58053 | 4013 ft | 235 kts | 18° |
| 2026-05-03 21:48 | 32.89625 | -16.57428 | 3904 ft | 230 kts | 18° |
| 2026-05-03 21:48 | 32.91122 | -16.56732 | 3624 ft | 233 kts | 30° |
| 2026-05-03 21:48 | 32.92260 | -16.55397 | 3304 ft | 231 kts | 60° |
| 2026-05-03 21:49 | 32.92632 | -16.54219 | 3101 ft | 229 kts | 81° |
| 2026-05-03 21:49 | 32.92261 | -16.51816 | 3003 ft | 226 kts | 123° |
| 2026-05-03 21:49 | 32.91585 | -16.50903 | 2993 ft | 212 kts | 147° |
| 2026-05-03 21:49 | 32.89771 | -16.50433 | 3003 ft | 198 kts | 193° |
| 2026-05-03 21:50 | 32.88572 | -16.51182 | 3009 ft | 197 kts | 227° |
| 2026-05-03 21:50 | 32.87832 | -16.52548 | 3027 ft | 198 kts | 244° |
| 2026-05-03 21:50 | 32.87449 | -16.53555 | 3027 ft | 198 kts | 246° |
| 2026-05-03 21:50 | 32.86915 | -16.55035 | 3025 ft | 199 kts | 246° |
| 2026-05-03 21:51 | 32.86333 | -16.56622 | 3039 ft | 217 kts | 246° |
| 2026-05-03 21:51 | 32.85719 | -16.58270 | 3038 ft | 219 kts | 246° |
| 2026-05-03 21:51 | 32.85079 | -16.59911 | 3022 ft | 218 kts | 237° |
| 2026-05-03 21:51 | 32.83944 | -16.61069 | 3017 ft | 219 kts | 207° |
| 2026-05-03 21:52 | 32.82155 | -16.62161 | 3013 ft | 216 kts | 211° |
| 2026-05-03 21:52 | 32.81282 | -16.62760 | 3008 ft | 214 kts | 213° |
| 2026-05-03 21:52 | 32.80049 | -16.63672 | 2994 ft | 200 kts | 215° |
| 2026-05-03 21:52 | 32.78955 | -16.64518 | 2974 ft | 183 kts | 216° |
| 2026-05-03 21:53 | 32.77898 | -16.65363 | 2988 ft | 182 kts | 217° |
| 2026-05-03 21:53 | 32.76869 | -16.66207 | 2959 ft | 174 kts | 217° |
| 2026-05-03 21:53 | 32.75889 | -16.67017 | 2761 ft | 171 kts | 217° |
| 2026-05-03 21:53 | 32.74919 | -16.67823 | 2533 ft | 169 kts | 217° |
| 2026-05-03 21:54 | 32.73960 | -16.68618 | 2388 ft | 167 kts | 217° |
| 2026-05-03 21:54 | 32.73032 | -16.69387 | 2180 ft | 159 kts | 218° |
| 2026-05-03 21:54 | 32.72136 | -16.70127 | 1940 ft | 156 kts | 217° |
| 2026-05-03 21:54 | 32.71241 | -16.70859 | 1690 ft | 157 kts | 217° |
| 2026-05-03 21:55 | 32.70357 | -16.71590 | 1494 ft | 156 kts | 217° |
| 2026-05-03 21:55 | 32.69470 | -16.72329 | 1293 ft | 156 kts | 216° |
| 2026-05-03 21:55 | 32.68615 | -16.73030 | 1055 ft | 137 kts | 216° |
| 2026-05-03 21:55 | 32.67858 | -16.73642 | 956 ft | 130 kts | 214° |
| 2026-05-03 21:56 | 32.67127 | -16.74273 | 955 ft | 130 kts | 222° |
| 2026-05-03 21:56 | 32.66475 | -16.75005 | 906 ft | 129 kts | 227° |
| 2026-05-03 21:56 | 32.65906 | -16.75821 | 784 ft | 128 kts | 237° |
| 2026-05-03 21:56 | 32.65614 | -16.76802 | 755 ft | 127 kts | 259° |
| 2026-05-03 21:57 | 32.65645 | -16.77860 | 696 ft | 130 kts | 272° |
| 2026-05-03 21:57 | 32.65800 | -16.78924 | 634 ft | 131 kts | 279° |
| 2026-05-03 21:57 | 32.66292 | -16.79839 | 636 ft | 140 kts | 321° |
| 2026-05-03 21:57 | 32.67237 | -16.79956 | 506 ft | 146 kts | 21° |
| 2026-05-03 21:58 | 32.68090 | -16.79249 | 424 ft | 148 kts | 29° |
| 2026-05-03 21:58 | 32.68901 | -16.78490 | 278 ft | 149 kts | 41° |
| 2026-05-03 21:58 | 32.69618 | -16.77651 | 182 ft | 136 kts | 43° |
| 2026-05-03 21:58 | 32.70178 | -16.76993 | 182 ft | 75 kts | 44° |
| 2026-05-03 21:59 | 32.70356 | -16.76833 | 182 ft | 22 kts | 16° |
| 2026-05-03 21:59 | 32.70361 | -16.76770 | 182 ft | 18 kts | 219° |
| 2026-05-03 21:59 | 32.70262 | -16.76884 | 182 ft | 23 kts | 226° |
| 2026-05-03 21:59 | 32.70139 | -16.77035 | 182 ft | 27 kts | 225° |
| 2026-05-03 22:00 | 32.70015 | -16.77174 | 182 ft | 17 kts | 203° |
| 2026-05-03 22:00 | 32.69895 | -16.77177 | 182 ft | 17 kts | 180° |
| 2026-05-03 22:00 | 32.69805 | -16.77223 | 182 ft | 12 kts | 224° |
| 2026-05-03 22:00 | 32.69739 | -16.77300 | 182 ft | 12 kts | 226° |
| 2026-05-03 22:01 | 32.69692 | -16.77357 | 182 ft | 11 kts | 227° |
| 2026-05-03 22:01 | 32.69637 | -16.77426 | 182 ft | 12 kts | 227° |
| 2026-05-03 22:01 | 32.69573 | -16.77507 | 182 ft | 14 kts | 226° |
| 2026-05-03 22:01 | 32.69519 | -16.77574 | 182 ft | 9 kts | 226° |
| 2026-05-03 22:02 | 32.69475 | -16.77592 | 182 ft | 4 kts | 147° |
| 2026-05-03 22:02 | 32.69449 | -16.77568 | 182 ft | 0 kts | 139° |
| 2026-05-03 22:02 | 32.69447 | -16.77566 | 182 ft | 1 kts | 139° |
| 2026-05-03 22:02 | 32.69440 | -16.77558 | 182 ft | 0 kts | 138° |